createdAt,value
2019-04-03T00:11:04.126Z,13.43
2019-04-03T00:13:51.510Z,14.08
2019-04-03T00:16:38.798Z,13.56
2019-04-03T00:28:58.717Z,13.05
2019-04-03T00:38:00.782Z,13.73
2019-04-03T00:40:47.545Z,13.82
2019-04-03T00:43:34.220Z,13.15
2019-04-03T00:46:21.011Z,12.97
2019-04-03T00:49:08.279Z,12.80
2019-04-03T00:58:32.758Z,12.66
2019-04-03T01:07:31.772Z,12.43
2019-04-03T01:10:18.653Z,12.25
2019-04-03T01:13:05.954Z,12.88
2019-04-03T01:16:07.259Z,12.25
2019-04-03T01:18:54.006Z,12.05
2019-04-03T01:24:47.633Z,11.76
2019-04-03T01:27:35.745Z,11.60
2019-04-03T01:30:37.019Z,11.43
2019-04-03T01:33:23.775Z,11.25
2019-04-03T01:36:10.957Z,11.96
2019-04-03T02:00:42.428Z,10.61
2019-04-03T02:03:29.594Z,11.38
2019-04-03T02:09:22.929Z,10.84
2019-04-03T02:12:10.195Z,10.71
2019-04-03T02:14:57.434Z,11.43
2019-04-03T02:17:44.865Z,10.80
2019-04-03T02:20:31.626Z,10.62
2019-04-03T02:23:18.387Z,10.51
2019-04-03T02:26:07.983Z,10.44
2019-04-03T02:35:08.435Z,10.38
2019-04-03T02:37:54.935Z,10.37
2019-04-03T02:40:42.358Z,11.12
2019-04-03T02:43:30.297Z,10.56
2019-04-03T02:52:28.826Z,10.36
2019-04-03T02:55:15.797Z,10.34
2019-04-03T02:58:02.723Z,10.32
2019-04-03T03:00:49.573Z,11.07
2019-04-03T03:03:50.849Z,10.53
2019-04-03T03:06:37.995Z,11.21
2019-04-03T03:09:24.779Z,10.64
2019-04-03T03:12:11.750Z,10.53
2019-04-03T03:14:59.363Z,10.45
2019-04-03T03:17:46.407Z,11.13
2019-04-03T03:20:33.383Z,10.55
2019-04-03T03:23:23.391Z,11.17
2019-04-03T03:26:09.128Z,10.58
2019-04-03T03:28:55.987Z,11.18
2019-04-03T03:32:05.588Z,11.31
2019-04-03T03:34:47.638Z,10.61
2019-04-03T03:37:17.901Z,10.38
2019-04-03T03:40:05.533Z,10.28
2019-04-03T03:42:52.432Z,10.19
2019-04-03T03:45:40.512Z,10.11
2019-04-03T03:48:27.418Z,10.05
2019-04-03T03:51:14.281Z,9.99
2019-04-03T03:54:01.392Z,10.72
2019-04-03T03:56:48.207Z,10.18
2019-04-03T03:59:35.528Z,10.07
2019-04-03T04:02:22.646Z,10.04
2019-04-03T04:05:11.584Z,10.04
2019-04-03T04:07:56.746Z,10.04
2019-04-03T04:10:43.465Z,10.05
2019-04-03T04:13:30.898Z,10.08
2019-04-03T04:16:19.032Z,10.10
2019-04-03T04:22:15.534Z,10.11
2019-04-03T04:24:59.899Z,10.12
2019-04-03T04:27:46.060Z,10.86
2019-04-03T04:30:36.859Z,11.11
2019-04-03T04:33:24.096Z,10.58
2019-04-03T04:39:17.275Z,10.43
2019-04-03T04:42:04.768Z,10.39
2019-04-03T04:44:51.659Z,10.34
2019-04-03T04:57:08.263Z,10.17
2019-04-03T05:06:05.578Z,10.16
2019-04-03T05:08:52.480Z,10.16
2019-04-03T05:11:39.538Z,10.89
2019-04-03T05:14:26.892Z,10.37
2019-04-03T05:17:13.816Z,10.26
2019-04-03T05:20:01.607Z,10.21
2019-04-03T05:22:48.713Z,10.23
2019-04-03T05:50:26.362Z,11.15
2019-04-03T05:53:12.466Z,11.23
2019-04-03T05:56:00.072Z,11.29
2019-04-03T05:58:55.583Z,11.38
2019-04-03T06:01:34.506Z,11.48
2019-04-03T06:04:21.396Z,11.54
2019-04-03T06:07:17.532Z,11.56
2019-04-03T06:10:02.887Z,11.60
2019-04-03T06:12:49.679Z,12.47
2019-04-03T06:18:43.622Z,11.94
2019-04-03T06:21:30.870Z,11.98
2019-04-03T06:33:36.597Z,13.12
2019-04-03T06:36:22.747Z,12.61
2019-04-03T06:45:21.707Z,13.61
2019-04-03T06:48:09.176Z,13.10
2019-04-03T06:50:56.395Z,13.03
2019-04-03T06:59:56.251Z,13.14
2019-04-03T07:02:43.326Z,13.22
2019-04-03T07:05:30.187Z,13.27
2019-04-03T07:23:48.031Z,13.89
2019-04-03T07:26:35.754Z,14.07
2019-04-03T07:29:25.575Z,14.30
2019-04-03T07:35:30.894Z,14.83
2019-04-03T07:38:18.096Z,16.24
2019-04-03T07:44:27.681Z,15.85
2019-04-03T07:47:13.377Z,15.97
2019-04-03T07:50:00.534Z,16.05
2019-04-03T07:52:48.923Z,16.08
2019-04-03T07:58:41.763Z,16.01
2019-04-03T08:01:28.772Z,16.04
2019-04-03T08:04:16.701Z,16.10
2019-04-03T08:07:03.581Z,16.32
2019-04-03T08:09:50.327Z,16.48
2019-04-03T08:12:37.281Z,16.60
2019-04-03T08:15:24.256Z,16.80
2019-04-03T08:18:11.738Z,17.10
2019-04-03T08:21:01.544Z,17.41
2019-04-03T08:29:58.000Z,17.74
2019-04-03T08:32:47.358Z,17.86
2019-04-03T08:38:38.577Z,18.05
2019-04-03T08:44:33.848Z,18.36
2019-04-03T08:47:19.485Z,19.63
2019-04-03T08:56:18.532Z,18.51
2019-04-03T08:59:05.218Z,18.42
2019-04-03T09:01:55.103Z,18.23
2019-04-03T09:13:58.389Z,18.55
2019-04-03T09:16:45.335Z,18.50
2019-04-03T09:19:32.074Z,18.52
2019-04-03T09:22:21.620Z,19.75
2019-04-03T09:25:14.818Z,20.05
2019-04-03T09:31:08.042Z,19.11
2019-04-03T09:33:56.970Z,19.24
2019-04-03T09:36:41.974Z,19.32
2019-04-03T09:42:34.715Z,19.59
2019-04-03T09:45:21.854Z,19.44
2019-04-03T09:51:17.605Z,20.64
2019-04-03T09:54:02.391Z,19.83
2019-04-03T09:59:55.851Z,20.12
2019-04-03T10:02:43.371Z,21.44
2019-04-03T10:05:30.072Z,20.55
2019-04-03T10:14:30.109Z,19.99
2019-04-03T10:17:16.897Z,19.99
2019-04-03T10:20:07.310Z,20.10
2019-04-03T10:23:08.276Z,20.23
2019-04-03T10:25:56.826Z,20.32
2019-04-03T10:31:56.928Z,20.43
2019-04-03T10:34:43.782Z,20.56
2019-04-03T10:37:46.627Z,20.59
2019-04-03T10:40:32.284Z,20.62
2019-04-03T10:43:20.236Z,20.71
2019-04-03T10:46:07.986Z,20.74
2019-04-03T10:49:09.483Z,20.89
2019-04-03T10:51:57.309Z,21.09
2019-04-03T10:54:44.348Z,21.34
2019-04-03T10:57:35.487Z,21.54
2019-04-03T11:00:24.608Z,21.73
2019-04-03T11:03:10.560Z,21.88
2019-04-03T11:05:57.463Z,21.81
2019-04-03T11:08:44.352Z,23.25
2019-04-03T11:14:13.109Z,22.49
2019-04-03T11:17:00.574Z,23.91
2019-04-03T11:19:47.604Z,24.22
2019-04-03T11:22:41.280Z,23.03
2019-04-03T11:25:21.596Z,22.64
2019-04-03T11:28:08.360Z,22.31
2019-04-03T11:30:56.338Z,23.41
2019-04-03T11:33:44.578Z,22.36
2019-04-03T11:36:30.788Z,22.27
2019-04-03T11:39:16.928Z,22.27
2019-04-03T11:42:04.205Z,22.37
2019-04-03T11:44:51.526Z,22.47
2019-04-03T11:47:38.091Z,22.56
2019-04-03T11:50:25.394Z,23.88
2019-04-03T11:53:11.770Z,22.85
2019-04-03T11:55:58.693Z,22.55
2019-04-03T11:58:46.829Z,22.23
2019-04-03T12:01:33.523Z,21.98
2019-04-03T12:04:21.278Z,21.67
2019-04-03T12:10:14.742Z,21.02
2019-04-03T12:13:03.762Z,20.60
2019-04-03T12:15:52.508Z,20.45
2019-04-03T12:18:36.230Z,20.34
2019-04-03T12:24:43.885Z,20.54
2019-04-03T12:30:36.264Z,21.01
2019-04-03T12:33:23.708Z,20.98
2019-04-03T12:36:13.254Z,21.15
2019-04-03T12:38:58.057Z,21.63
2019-04-03T12:41:44.983Z,21.94
2019-04-03T12:44:32.370Z,22.14
2019-04-03T12:47:19.858Z,22.35
2019-04-03T12:50:07.614Z,23.78
2019-04-03T12:53:08.787Z,23.07
2019-04-03T12:55:57.699Z,24.22
2019-04-03T12:58:43.398Z,22.84
2019-04-03T13:01:30.227Z,22.38
2019-04-03T13:04:17.586Z,22.34
2019-04-03T13:07:05.789Z,22.27
2019-04-03T13:12:57.844Z,22.64
2019-04-03T13:15:44.939Z,22.59
2019-04-03T13:18:32.109Z,22.53
2019-04-03T13:21:18.671Z,22.63
2019-04-03T13:24:05.348Z,22.90
2019-04-03T13:29:58.141Z,23.09
2019-04-03T13:32:56.722Z,23.18
2019-04-03T13:35:31.913Z,23.38
2019-04-03T13:38:32.951Z,23.40
2019-04-03T13:41:19.673Z,23.37
2019-04-03T13:44:06.955Z,23.40
2019-04-03T13:46:53.515Z,23.33
2019-04-03T13:49:41.073Z,23.27
2019-04-03T13:52:38.760Z,23.20
2019-04-03T13:55:15.546Z,23.06
2019-04-03T13:58:02.462Z,23.34
2019-04-03T14:00:58.637Z,23.44
2019-04-03T14:03:37.442Z,23.60
2019-04-03T14:06:24.236Z,25.02
2019-04-03T14:09:11.821Z,25.29
2019-04-03T14:12:00.440Z,25.47
2019-04-03T14:20:59.634Z,23.78
2019-04-03T14:23:47.643Z,23.58
2019-04-03T14:26:35.478Z,23.51
2019-04-03T14:29:22.251Z,23.39
2019-04-03T14:32:09.428Z,23.19
2019-04-03T14:35:05.185Z,22.86
2019-04-03T14:37:45.502Z,22.58
2019-04-03T14:46:42.655Z,22.43
2019-04-03T14:49:31.740Z,22.58
2019-04-03T14:52:16.897Z,22.54
2019-04-03T14:55:16.428Z,22.64
2019-04-03T15:10:14.392Z,24.06
2019-04-03T15:13:01.645Z,23.25
2019-04-03T15:19:02.711Z,23.00
2019-04-03T15:21:49.566Z,22.94
2019-04-03T15:24:36.370Z,22.95
2019-04-03T15:27:23.650Z,23.05
2019-04-03T15:30:12.081Z,23.11
2019-04-03T15:32:58.081Z,23.12
2019-04-03T15:35:45.276Z,23.09
2019-04-03T15:38:32.698Z,24.18
2019-04-03T15:41:34.884Z,23.32
2019-04-03T15:44:21.590Z,23.47
2019-04-03T15:47:10.251Z,23.97
2019-04-03T15:49:58.337Z,24.28
2019-04-03T15:52:44.333Z,24.02
2019-04-03T15:55:29.177Z,23.32
2019-04-03T15:58:16.168Z,22.70
2019-04-03T16:01:06.599Z,22.25
2019-04-03T16:03:50.535Z,22.17
2019-04-03T16:06:37.365Z,22.18
2019-04-03T16:09:24.494Z,22.29
2019-04-03T16:12:12.476Z,22.55
2019-04-03T16:18:07.108Z,23.94
2019-04-03T16:20:52.687Z,22.82
2019-04-03T16:26:46.133Z,21.76
2019-04-03T16:29:36.175Z,21.51
2019-04-03T16:32:25.879Z,22.38
2019-04-03T16:35:12.603Z,21.36
2019-04-03T16:37:57.851Z,20.96
2019-04-03T16:40:46.548Z,20.52
2019-04-03T16:43:31.361Z,19.98
2019-04-03T16:46:18.001Z,20.73
2019-04-03T16:49:07.163Z,19.81
2019-04-03T16:51:55.916Z,19.55
2019-04-03T16:54:44.329Z,19.30
2019-04-03T16:57:30.020Z,18.94
2019-04-03T17:00:16.891Z,18.71
2019-04-03T17:03:04.281Z,18.56
2019-04-03T17:05:50.994Z,18.40
2019-04-03T17:08:38.419Z,18.28
2019-04-03T17:11:25.295Z,18.18
2019-04-03T17:14:27.231Z,18.09
2019-04-03T17:17:15.458Z,18.03
2019-04-03T17:20:02.303Z,18.90
2019-04-03T17:22:48.906Z,18.16
2019-04-03T17:25:45.822Z,17.93
2019-04-03T17:28:23.212Z,17.73
2019-04-03T17:31:09.636Z,17.61
2019-04-03T17:33:57.762Z,17.40
2019-04-03T17:36:44.322Z,17.97
2019-04-03T17:39:31.093Z,17.03
2019-04-03T17:42:18.902Z,16.55
2019-04-03T17:48:12.089Z,15.83
2019-04-03T17:54:07.418Z,15.31
2019-04-03T17:56:52.395Z,15.05
2019-04-03T17:59:39.602Z,15.71
2019-04-03T18:02:29.462Z,14.95
2019-04-03T18:05:13.925Z,14.77
2019-04-03T18:08:01.025Z,14.63
2019-04-03T18:13:55.617Z,14.31
2019-04-03T18:16:42.344Z,14.22
2019-04-03T18:19:37.308Z,14.13
2019-04-03T18:22:16.175Z,14.05
2019-04-03T18:25:03.026Z,13.98
2019-04-03T18:27:50.919Z,13.88
2019-04-03T18:30:38.327Z,13.83
2019-04-03T18:33:25.362Z,13.77
2019-04-03T18:36:12.126Z,13.68
2019-04-03T18:38:59.421Z,13.60
2019-04-03T18:41:47.828Z,13.55
2019-04-03T18:44:34.313Z,13.47
2019-04-03T18:47:21.156Z,13.40
2019-04-03T18:50:10.123Z,14.08
2019-04-03T18:52:55.588Z,13.47
2019-04-03T18:55:44.683Z,13.26
2019-04-03T18:58:29.583Z,13.92
2019-04-03T19:01:17.249Z,13.33
2019-04-03T19:04:05.145Z,13.13
2019-04-03T19:06:51.782Z,12.96
2019-04-03T19:09:38.624Z,12.89
2019-04-03T19:12:35.000Z,13.60
2019-04-03T19:15:12.893Z,13.09
2019-04-03T19:21:06.545Z,12.82
2019-04-03T19:23:54.371Z,12.73
2019-04-03T19:26:41.309Z,13.47
2019-04-03T19:29:28.483Z,12.94
2019-04-03T19:32:16.063Z,12.76
2019-04-03T19:35:03.051Z,12.64
2019-04-03T19:37:49.960Z,12.55
2019-04-03T19:40:40.301Z,12.42
2019-04-03T19:46:37.755Z,12.18
2019-04-03T19:49:28.105Z,12.11
2019-04-03T19:52:14.879Z,12.83
2019-04-03T19:55:02.535Z,12.30
2019-04-03T19:57:51.412Z,12.98
2019-04-03T20:00:38.606Z,12.44
2019-04-03T20:03:25.416Z,12.33
2019-04-03T20:06:13.710Z,12.28
2019-04-03T20:09:00.805Z,12.23
2019-04-03T20:11:49.219Z,12.19
2019-04-03T20:14:37.361Z,12.15
2019-04-03T20:17:24.481Z,12.09
2019-04-03T20:20:11.118Z,12.05
2019-04-03T20:22:58.170Z,12.03
2019-04-03T20:25:46.546Z,12.74
2019-04-03T20:28:32.714Z,12.25
2019-04-03T20:34:26.406Z,12.09
2019-04-03T20:37:13.335Z,12.06
2019-04-03T20:43:06.519Z,12.05
2019-04-03T20:49:02.791Z,11.99
2019-04-03T20:51:48.496Z,12.62
2019-04-03T20:54:33.269Z,12.15
2019-04-03T20:57:20.359Z,12.05
2019-04-03T21:00:10.468Z,12.64
2019-04-03T21:02:57.614Z,12.14
2019-04-03T21:05:44.817Z,12.01
2019-04-03T21:08:36.209Z,11.92
2019-04-03T21:11:23.631Z,12.52
2019-04-03T21:14:11.380Z,11.99
2019-04-03T21:16:57.794Z,12.53
2019-04-03T21:19:45.335Z,11.94
2019-04-03T21:22:32.276Z,11.78
2019-04-03T21:25:19.037Z,11.66
2019-04-03T21:28:06.281Z,11.56
2019-04-03T21:30:54.867Z,12.14
2019-04-03T21:33:40.154Z,12.26
2019-04-03T21:36:27.086Z,12.32
2019-04-03T21:39:14.284Z,12.37
2019-04-03T21:42:01.586Z,11.76
2019-04-03T21:44:48.653Z,11.55
2019-04-03T21:47:35.956Z,11.40
2019-04-03T21:50:23.124Z,11.27
2019-04-03T21:53:10.208Z,11.16
2019-04-03T21:56:02.517Z,11.05
2019-04-03T21:58:47.421Z,11.61
2019-04-03T22:01:34.149Z,11.74
2019-04-03T22:04:22.928Z,11.17
2019-04-03T22:07:08.513Z,11.00
2019-04-03T22:09:55.538Z,10.89
2019-04-03T22:12:42.354Z,10.79
2019-04-03T22:15:29.276Z,11.36
2019-04-03T22:18:16.709Z,10.86
2019-04-03T22:21:03.998Z,10.74
2019-04-03T22:23:51.218Z,10.63
2019-04-03T22:26:38.812Z,10.57
2019-04-03T22:29:25.512Z,10.51
2019-04-03T22:32:12.531Z,10.47
2019-04-03T22:35:01.616Z,10.42
2019-04-03T22:38:02.180Z,10.39
2019-04-03T22:40:49.224Z,10.34
2019-04-03T22:43:36.340Z,10.28
2019-04-03T22:46:30.691Z,10.24
2019-04-03T22:49:17.806Z,10.17
2019-04-03T22:52:08.869Z,10.80
2019-04-03T22:54:54.633Z,10.35
2019-04-03T22:57:41.509Z,10.26
2019-04-03T23:00:28.603Z,10.86
2019-04-03T23:03:15.730Z,10.35
2019-04-03T23:06:02.522Z,10.88
2019-04-03T23:08:49.534Z,10.32
2019-04-03T23:11:36.815Z,10.17
2019-04-03T23:14:23.887Z,10.01
2019-04-03T23:17:11.987Z,9.86
2019-04-03T23:19:58.193Z,9.79
2019-04-03T23:22:45.357Z,9.70
2019-04-03T23:25:46.646Z,9.59
2019-04-03T23:28:33.955Z,9.42
2019-04-03T23:31:20.304Z,9.34
2019-04-03T23:34:08.098Z,9.26
2019-04-03T23:37:09.231Z,9.12
2019-04-03T23:39:57.164Z,9.04
2019-04-03T23:42:43.992Z,9.74
2019-04-03T23:45:30.828Z,9.21
2019-04-03T23:48:18.477Z,9.01
2019-04-03T23:51:05.132Z,8.92
2019-04-03T23:53:51.957Z,8.82
2019-04-03T23:56:39.488Z,9.47
2019-04-03T23:59:25.846Z,8.91
